Yasuj, Iran
Current Conditions -  °F | °C
As of 3:00 PM on Monday 26 Jan 2015 (Local Time) from OISY Reporting Station
Clear Clear  
Wind Chill: 16°   Ceiling: Unl
Heat Index: 16°   Visibility: 6mi
Dew Point: -20°   Wind: 0mph
Humidity: 7%   Direction: NA
Pressure: 30.3"   Gusts: NA
Location:  30.67°N, 51.58°E
Report Text: OISY 261200Z 00000KT CAVOK 16/M20 Q1026
Loading
Personal Weather Stations






























Interactive Weather Map New forecast layout! Learn more

10-Day Weather Forecast

Advertisements
Track Severe Weather on mobile